createdAt,value
2022-12-11T17:56:42.138Z,50.94
2022-12-11T17:57:42.194Z,49.53
2022-12-11T17:58:42.110Z,53.21
2022-12-11T17:59:42.217Z,49.86
2022-12-11T18:00:42.156Z,50.80
2022-12-11T18:01:42.151Z,49.36
2022-12-11T18:02:42.126Z,50.70
2022-12-11T18:03:42.178Z,50.74
2022-12-11T18:04:42.064Z,49.70
2022-12-11T18:05:42.121Z,50.00
2022-12-11T18:06:42.074Z,50.05
2022-12-11T18:07:42.063Z,50.15
2022-12-11T18:08:42.197Z,51.22
2022-12-11T18:09:42.054Z,51.20
2022-12-11T18:10:42.060Z,49.21
2022-12-11T18:11:44.242Z,49.73
2022-12-11T18:12:42.074Z,49.16
2022-12-11T18:13:42.035Z,49.57
2022-12-11T18:14:42.016Z,51.59
2022-12-11T18:15:42.139Z,50.54
2022-12-11T18:16:42.015Z,51.38
2022-12-11T18:17:41.987Z,50.04
2022-12-11T18:18:42.033Z,48.95
2022-12-11T18:19:46.093Z,49.68
2022-12-11T18:20:43.067Z,50.91
2022-12-11T18:21:42.023Z,49.04
2022-12-11T18:22:42.002Z,49.75
2022-12-11T18:23:41.967Z,48.93
2022-12-11T18:24:41.966Z,48.21
2022-12-11T18:25:41.944Z,49.76
2022-12-11T18:26:41.924Z,49.44
2022-12-11T18:27:41.956Z,50.16
2022-12-11T18:28:41.941Z,50.19
2022-12-11T18:29:41.907Z,49.67
2022-12-11T18:30:41.954Z,49.54
2022-12-11T18:31:42.889Z,49.04
2022-12-11T18:32:42.897Z,49.03
2022-12-11T18:33:41.906Z,49.02
2022-12-11T18:34:41.879Z,47.84
2022-12-11T18:35:41.900Z,48.67
2022-12-11T18:36:41.881Z,48.83
2022-12-11T18:37:41.879Z,48.98
2022-12-11T18:38:41.924Z,47.85
2022-12-11T18:39:41.852Z,48.55
2022-12-11T18:40:43.187Z,48.16
2022-12-11T18:41:41.846Z,46.75
2022-12-11T18:42:41.890Z,48.02
2022-12-11T18:43:41.863Z,48.02
2022-12-11T18:44:42.307Z,48.36
2022-12-11T18:45:44.498Z,48.99
2022-12-11T18:46:44.276Z,50.95
2022-12-11T18:47:42.642Z,49.98
2022-12-11T18:48:43.333Z,48.54
2022-12-11T18:49:42.677Z,47.44
2022-12-11T18:50:41.788Z,47.12
2022-12-11T18:51:41.770Z,46.98
2022-12-11T18:52:41.786Z,48.09
2022-12-11T18:53:41.797Z,47.63
2022-12-11T18:54:41.871Z,46.91
2022-12-11T18:55:41.730Z,47.29
2022-12-11T18:56:41.765Z,47.15
2022-12-11T18:57:41.715Z,46.93
2022-12-11T18:58:41.757Z,47.46
2022-12-11T18:59:41.726Z,46.99
2022-12-11T19:00:41.780Z,48.32
2022-12-11T19:01:41.746Z,46.95
2022-12-11T19:02:41.671Z,47.11
2022-12-11T19:03:41.690Z,48.95
2022-12-11T19:04:41.700Z,49.29
2022-12-11T19:05:41.737Z,47.98
2022-12-11T19:06:41.695Z,47.86
2022-12-11T19:07:41.827Z,47.67
2022-12-11T19:08:41.659Z,48.93
2022-12-11T19:09:47.582Z,48.34
2022-12-11T19:10:43.632Z,48.37
2022-12-11T19:11:41.795Z,48.01
2022-12-11T19:12:41.646Z,47.81
2022-12-11T19:13:41.607Z,49.12
2022-12-11T19:14:41.698Z,47.66
2022-12-11T19:15:41.616Z,48.37
2022-12-11T19:16:41.595Z,48.11
2022-12-11T19:17:41.682Z,47.33
2022-12-11T19:18:41.642Z,48.10
2022-12-11T19:19:41.597Z,51.25
2022-12-11T19:20:51.034Z,56.32
2022-12-11T19:21:43.558Z,58.77
2022-12-11T19:22:42.655Z,60.25
2022-12-11T19:23:44.343Z,55.08
2022-12-11T19:24:41.551Z,53.70
2022-12-11T19:25:41.506Z,47.63
2022-12-11T19:26:41.607Z,47.24
2022-12-11T19:27:41.529Z,47.30
2022-12-11T19:28:41.505Z,47.72
2022-12-11T19:29:41.531Z,47.13
2022-12-11T19:30:41.528Z,47.19
2022-12-11T19:31:41.705Z,48.85
2022-12-11T19:32:41.557Z,47.87
2022-12-11T19:33:41.542Z,47.86
2022-12-11T19:34:41.506Z,46.90
2022-12-11T19:35:41.490Z,47.40
2022-12-11T19:36:41.817Z,47.39
2022-12-11T19:37:41.448Z,48.02
2022-12-11T19:38:41.475Z,47.71
2022-12-11T19:39:41.462Z,47.28
2022-12-11T19:40:41.709Z,46.41
2022-12-11T19:41:41.455Z,48.05
2022-12-11T19:42:41.449Z,46.77
2022-12-11T19:43:41.447Z,46.54
2022-12-11T19:44:41.462Z,47.81
2022-12-11T19:45:41.421Z,47.32
2022-12-11T19:46:41.512Z,48.40
2022-12-11T19:47:41.433Z,47.69
2022-12-11T19:48:41.430Z,47.96
2022-12-11T19:49:41.372Z,49.44
2022-12-11T19:50:42.398Z,50.17
2022-12-11T19:51:41.371Z,49.15
2022-12-11T19:52:46.315Z,47.42
2022-12-11T19:53:42.439Z,46.33
2022-12-11T19:54:41.338Z,47.00
2022-12-11T19:55:41.367Z,46.64
2022-12-11T19:56:41.346Z,46.62
2022-12-11T19:57:41.341Z,47.23
2022-12-11T19:58:41.381Z,46.86
2022-12-11T19:59:41.315Z,45.93
2022-12-11T20:00:41.397Z,46.00
2022-12-11T20:01:41.421Z,48.79
2022-12-11T20:02:41.317Z,46.57
2022-12-11T20:03:41.310Z,46.35
2022-12-11T20:04:41.279Z,46.99
2022-12-11T20:05:41.313Z,46.23
2022-12-11T20:06:41.264Z,46.66
2022-12-11T20:07:41.264Z,47.53
2022-12-11T20:08:45.908Z,46.70
2022-12-11T20:09:43.280Z,47.49
2022-12-11T20:10:41.343Z,46.71
2022-12-11T20:11:41.273Z,46.97
2022-12-11T20:12:41.260Z,48.16
2022-12-11T20:13:41.215Z,48.19
2022-12-11T20:14:41.232Z,47.42
2022-12-11T20:15:41.423Z,46.78
2022-12-11T20:17:43.332Z,47.94
2022-12-11T20:18:41.278Z,46.59
2022-12-11T20:19:41.230Z,47.26
2022-12-11T20:20:41.183Z,46.44
2022-12-11T20:21:41.173Z,46.57
2022-12-11T20:22:41.171Z,45.81
2022-12-11T20:23:41.166Z,45.98
2022-12-11T20:24:41.174Z,46.76
2022-12-11T20:25:41.164Z,47.73
2022-12-11T20:26:41.111Z,46.87
2022-12-11T20:27:41.175Z,48.36
2022-12-11T20:28:41.104Z,46.80
2022-12-11T20:29:41.109Z,48.42
2022-12-11T20:30:41.127Z,47.54
2022-12-11T20:31:41.157Z,47.36
2022-12-11T20:32:41.177Z,48.20
2022-12-11T20:33:41.091Z,47.83
2022-12-11T20:34:41.078Z,47.03
2022-12-11T20:35:41.096Z,47.35
2022-12-11T20:36:41.177Z,47.44
2022-12-11T20:37:41.046Z,47.26
2022-12-11T20:38:41.131Z,48.33
2022-12-11T20:39:41.034Z,47.78
2022-12-11T20:40:41.017Z,47.32
2022-12-11T20:41:41.838Z,51.13
2022-12-11T20:42:41.001Z,47.88
2022-12-11T20:43:41.781Z,48.28
2022-12-11T20:44:45.643Z,47.76
2022-12-11T20:45:43.838Z,47.51
2022-12-11T20:46:40.984Z,48.00
2022-12-11T20:47:40.970Z,47.38
2022-12-11T20:48:40.984Z,47.69
2022-12-11T20:49:40.982Z,46.66
2022-12-11T20:50:40.949Z,46.88
2022-12-11T20:51:40.944Z,49.32
2022-12-11T20:52:40.979Z,47.26
2022-12-11T20:53:41.036Z,47.53
2022-12-11T20:54:40.942Z,46.16
2022-12-11T20:55:40.924Z,47.36
2022-12-11T20:56:40.936Z,46.90
2022-12-11T20:57:44.997Z,47.55
2022-12-11T20:58:41.880Z,46.91
2022-12-11T20:59:40.931Z,46.90
2022-12-11T21:00:40.927Z,47.45
2022-12-11T21:01:41.019Z,47.14
2022-12-11T21:02:40.848Z,46.07
2022-12-11T21:03:42.232Z,46.12
2022-12-11T21:04:41.871Z,46.65
2022-12-11T21:05:40.871Z,46.10
2022-12-11T21:06:40.851Z,46.85
2022-12-11T21:07:41.882Z,46.64
2022-12-11T21:08:40.834Z,46.71
2022-12-11T21:09:40.839Z,47.32
2022-12-11T21:10:41.287Z,46.28
2022-12-11T21:11:40.807Z,47.01
2022-12-11T21:12:40.826Z,46.40
2022-12-11T21:13:41.984Z,46.73
2022-12-11T21:14:40.802Z,51.78
2022-12-11T21:15:40.798Z,51.80
2022-12-11T21:16:40.830Z,47.87
2022-12-11T21:17:40.769Z,47.41
2022-12-11T21:18:40.747Z,46.80
2022-12-11T21:19:40.751Z,46.59
2022-12-11T21:20:40.770Z,47.61
2022-12-11T21:21:40.717Z,47.42
2022-12-11T21:22:41.547Z,47.98
2022-12-11T21:23:40.703Z,46.80
2022-12-11T21:24:40.751Z,46.54
2022-12-11T21:25:40.730Z,46.08
2022-12-11T21:26:40.710Z,46.93
2022-12-11T21:27:40.718Z,47.17
2022-12-11T21:28:40.702Z,46.86
2022-12-11T21:29:40.709Z,47.84
2022-12-11T21:30:41.701Z,47.72
2022-12-11T21:31:40.730Z,46.83
2022-12-11T21:32:40.638Z,46.33
2022-12-11T21:33:40.663Z,47.27
2022-12-11T21:34:40.675Z,47.72
2022-12-11T21:35:40.708Z,47.40
2022-12-11T21:36:40.676Z,46.69
2022-12-11T21:37:40.623Z,47.05
2022-12-11T21:38:40.646Z,47.86
2022-12-11T21:39:40.668Z,48.57
2022-12-11T21:40:40.612Z,46.72
2022-12-11T21:41:40.647Z,47.46
2022-12-11T21:42:40.571Z,47.89
2022-12-11T21:44:00.503Z,46.28
2022-12-11T21:46:42.676Z,46.09
2022-12-11T21:47:40.543Z,47.05
2022-12-11T21:48:41.555Z,46.53
2022-12-11T21:49:41.560Z,47.57
2022-12-11T21:50:41.560Z,47.65
2022-12-11T21:51:46.594Z,47.93
2022-12-11T21:52:42.524Z,47.21
2022-12-11T21:53:40.550Z,46.51
2022-12-11T21:54:40.540Z,46.20
2022-12-11T21:56:14.207Z,45.87
2022-12-11T21:56:40.606Z,46.88
2022-12-11T21:57:40.547Z,48.18
2022-12-11T21:58:40.531Z,47.18
2022-12-11T21:59:40.609Z,46.09
2022-12-11T22:01:13.999Z,46.90
2022-12-11T22:01:40.520Z,45.85
2022-12-11T22:02:41.236Z,46.06
2022-12-11T22:03:41.538Z,47.18
2022-12-11T22:04:40.557Z,46.56
2022-12-11T22:05:40.446Z,46.91
2022-12-11T22:06:40.490Z,46.05
2022-12-11T22:07:40.420Z,45.95
2022-12-11T22:08:40.396Z,45.56
2022-12-11T22:09:40.418Z,45.62
2022-12-11T22:10:40.385Z,46.06
2022-12-11T22:11:41.372Z,47.27
2022-12-11T22:12:40.390Z,47.64
2022-12-11T22:13:40.411Z,46.05
2022-12-11T22:14:40.404Z,45.94
2022-12-11T22:15:40.367Z,46.62
2022-12-11T22:16:40.429Z,47.30
2022-12-11T22:17:40.351Z,46.61
2022-12-11T22:18:40.324Z,46.46
2022-12-11T22:19:40.360Z,46.64
2022-12-11T22:21:12.751Z,46.27
2022-12-11T22:21:40.365Z,46.89
2022-12-11T22:22:40.345Z,47.04
2022-12-11T22:23:40.338Z,45.63
2022-12-11T22:24:41.341Z,46.20
2022-12-11T22:25:40.343Z,45.55
2022-12-11T22:26:40.306Z,45.59
2022-12-11T22:27:46.266Z,46.79
2022-12-11T22:28:41.298Z,46.26
2022-12-11T22:29:40.305Z,46.34
2022-12-11T22:30:40.348Z,47.38
2022-12-11T22:31:40.326Z,46.93
2022-12-11T22:32:40.260Z,47.72
2022-12-11T22:33:40.264Z,48.02
2022-12-11T22:34:40.230Z,45.77
2022-12-11T22:35:40.244Z,46.28
2022-12-11T22:36:40.199Z,46.95
2022-12-11T22:37:40.217Z,47.18
2022-12-11T22:38:40.210Z,46.86
2022-12-11T22:39:40.215Z,45.91
2022-12-11T22:40:40.289Z,48.04
2022-12-11T22:41:40.212Z,47.09
2022-12-11T22:42:40.199Z,46.34
2022-12-11T22:43:40.195Z,46.53
2022-12-11T22:44:40.207Z,46.49
2022-12-11T22:45:40.192Z,46.43
2022-12-11T22:46:40.312Z,48.67
2022-12-11T22:47:40.143Z,47.43
2022-12-11T22:48:40.182Z,46.42
2022-12-11T22:49:40.241Z,46.97
2022-12-11T22:50:40.128Z,46.29
2022-12-11T22:51:40.106Z,45.62
2022-12-11T22:52:40.115Z,46.24
2022-12-11T22:53:40.106Z,46.47
2022-12-11T22:54:40.217Z,45.62
2022-12-11T22:55:40.130Z,45.56
2022-12-11T22:56:41.096Z,45.75
2022-12-11T22:57:40.085Z,46.15
2022-12-11T22:58:40.093Z,46.35
2022-12-11T22:59:40.078Z,45.62
2022-12-11T23:00:45.939Z,45.72
2022-12-11T23:01:41.037Z,46.03
2022-12-11T23:02:40.163Z,46.03
2022-12-11T23:03:40.057Z,45.81
2022-12-11T23:04:40.041Z,45.87
2022-12-11T23:05:40.124Z,45.91
2022-12-11T23:06:40.043Z,46.17
2022-12-11T23:07:40.023Z,45.84
2022-12-11T23:08:40.027Z,45.96
2022-12-11T23:09:40.014Z,46.24
2022-12-11T23:10:39.989Z,45.99
2022-12-11T23:11:39.982Z,46.36
2022-12-11T23:12:39.968Z,45.59
2022-12-11T23:13:42.963Z,46.36
2022-12-11T23:14:40.023Z,45.76
2022-12-11T23:15:39.937Z,45.76
2022-12-11T23:16:39.986Z,45.78
2022-12-11T23:17:39.959Z,46.77
2022-12-11T23:18:39.909Z,46.06
2022-12-11T23:19:39.956Z,46.45
2022-12-11T23:20:39.919Z,46.47
2022-12-11T23:21:39.925Z,47.19
2022-12-11T23:22:39.887Z,45.86
2022-12-11T23:23:39.919Z,45.60
2022-12-11T23:24:39.904Z,46.43
2022-12-11T23:25:39.887Z,48.82
2022-12-11T23:26:39.889Z,47.19
2022-12-11T23:27:39.844Z,46.28
2022-12-11T23:28:39.839Z,46.35
2022-12-11T23:29:39.870Z,47.02
2022-12-11T23:30:39.917Z,46.05
2022-12-11T23:31:39.875Z,45.51
2022-12-11T23:32:39.804Z,45.68
2022-12-11T23:33:45.767Z,45.65
2022-12-11T23:34:40.819Z,46.55
2022-12-11T23:35:39.800Z,46.97
2022-12-11T23:36:39.804Z,45.78
2022-12-11T23:37:39.838Z,45.49
2022-12-11T23:38:39.794Z,46.65
2022-12-11T23:39:39.784Z,45.93
2022-12-11T23:40:39.781Z,46.72
2022-12-11T23:41:39.803Z,46.14
2022-12-11T23:42:39.868Z,45.68
2022-12-11T23:43:39.783Z,45.71
2022-12-11T23:44:39.774Z,46.40
2022-12-11T23:45:39.842Z,45.95
2022-12-11T23:46:39.786Z,45.93
2022-12-11T23:47:39.821Z,46.02
2022-12-11T23:48:39.755Z,45.99
2022-12-11T23:49:39.707Z,46.84
2022-12-11T23:50:39.809Z,46.42
2022-12-11T23:51:39.708Z,45.85
2022-12-11T23:52:39.700Z,46.19
2022-12-11T23:53:39.686Z,46.26
2022-12-11T23:54:39.694Z,46.12
2022-12-11T23:55:39.736Z,46.50
2022-12-11T23:56:39.679Z,46.09
2022-12-11T23:57:39.648Z,45.88
2022-12-11T23:58:39.650Z,45.93
2022-12-11T23:59:39.650Z,46.12
